Time;durP1;ratioP1;P1;durP2;ratioP2;P2;SDS_P1;SDS_P2;PMS_P1;PMS_P2;Temp;Humidity;BMP_temperature;BMP_pressure;BME280_temperature;BME280_humidity;BME280_pressure;Samples;Min_cycle;Max_cycle;Signal;HPM_P1;HPM_P2
2023/06/05 00:00:35;;;;;;;;;1.00;1.00;;;;;13.91;46.91;100398.97;5095984;28;9629;-60
2023/06/05 00:03:03;;;;;;;;;3.00;3.00;;;;;13.89;47.25;100408.09;5095606;28;8863;-60
2023/06/05 00:05:31;;;;;;;;;3.00;3.00;;;;;13.85;47.29;100402.16;5095725;28;8814;-59
2023/06/05 00:07:59;;;;;;;;;4.00;3.00;;;;;13.83;47.53;100393.38;5095707;28;8942;-60
2023/06/05 00:10:27;;;;;;;;;3.00;3.00;;;;;13.81;47.29;100398.03;5095813;28;8838;-61
2023/06/05 00:12:55;;;;;;;;;1.00;1.00;;;;;13.78;47.54;100390.28;5095778;28;8826;-60
2023/06/05 00:15:22;;;;;;;;;3.00;3.00;;;;;13.76;47.30;100397.59;5095699;28;8826;-60
2023/06/05 00:17:51;;;;;;;;;1.50;1.00;;;;;13.73;47.77;100403.19;5095307;28;8953;-60
2023/06/05 00:20:19;;;;;;;;;6.00;4.00;;;;;13.71;47.29;100402.47;5095833;28;8834;-60
2023/06/05 00:22:48;;;;;;;;;2.00;2.00;;;;;13.67;47.62;100400.19;5095642;28;8830;-60
2023/06/05 00:25:16;;;;;;;;;3.00;3.00;;;;;13.64;47.63;100403.97;5095219;28;8825;-60
2023/06/05 00:27:44;;;;;;;;;3.00;3.00;;;;;13.61;47.73;100403.38;5094906;28;8830;-60
2023/06/05 00:30:13;;;;;;;;;3.00;3.00;;;;;13.56;48.10;100409.13;5095246;28;8856;-60
2023/06/05 00:32:41;;;;;;;;;2.00;2.00;;;;;13.52;48.18;100409.53;5095046;28;8860;-60
2023/06/05 00:35:09;;;;;;;;;3.00;3.00;;;;;13.48;48.42;100402.72;5094524;28;8834;-59
2023/06/05 00:37:37;;;;;;;;;3.00;3.00;;;;;13.45;48.55;100400.31;5094092;28;8814;-59
2023/06/05 00:40:04;;;;;;;;;2.50;2.00;;;;;13.41;48.23;100401.53;5094847;28;8822;-61
2023/06/05 00:42:32;;;;;;;;;5.50;3.00;;;;;13.39;48.12;100408.84;5099261;28;8941;-60
2023/06/05 00:45:00;;;;;;;;;3.50;3.00;;;;;13.35;48.58;100396.72;5098761;28;8910;-60
2023/06/05 00:47:27;;;;;;;;;3.00;3.00;;;;;13.32;48.46;100394.28;5098818;28;8838;-58
2023/06/05 00:49:55;;;;;;;;;0.75;0.75;;;;;13.29;48.49;100399.91;5097803;28;8829;-60
2023/06/05 00:52:24;;;;;;;;;4.00;3.50;;;;;13.26;48.85;100394.78;5098317;28;9654;-60
2023/06/05 00:54:51;;;;;;;;;3.00;1.00;;;;;13.24;48.79;100399.44;5098748;28;8829;-60
2023/06/05 00:57:19;;;;;;;;;3.25;3.00;;;;;13.21;48.77;100399.69;5098901;28;9488;-60
2023/06/05 00:59:47;;;;;;;;;3.00;3.00;;;;;13.17;48.75;100399.09;5098704;28;8944;-60
2023/06/05 01:02:15;;;;;;;;;4.00;3.50;;;;;13.14;48.82;100403.84;5098262;28;8962;-60
2023/06/05 01:04:43;;;;;;;;;4.50;3.75;;;;;13.10;49.34;100394.38;5098067;28;8826;-59
2023/06/05 01:07:14;;;;;;;;;3.75;3.00;;;;;13.08;49.18;100390.97;5098616;28;8814;-61
2023/06/05 01:09:41;;;;;;;;;4.00;3.25;;;;;13.05;48.93;100396.59;5098625;28;8833;-61
2023/06/05 01:12:09;;;;;;;;;3.75;3.00;;;;;13.02;49.39;100399.50;5098692;28;8825;-61
2023/06/05 01:14:40;;;;;;;;;2.50;2.50;;;;;12.98;49.52;100396.22;5098209;28;8845;-61
2023/06/05 01:17:08;;;;;;;;;0.00;0.00;;;;;12.93;49.32;100394.88;5098527;28;8840;-61
2023/06/05 01:19:39;;;;;;;;;5.50;5.50;;;;;12.90;49.63;100389.81;5098394;28;8850;-60
2023/06/05 01:22:07;;;;;;;;;5.50;5.00;;;;;12.85;49.68;100392.00;5097309;28;8952;-60
2023/06/05 01:24:35;;;;;;;;;4.00;4.00;;;;;12.81;50.03;100390.53;5098043;28;8826;-60
2023/06/05 01:27:03;;;;;;;;;3.00;3.00;;;;;12.74;49.88;100389.31;5098158;28;8822;-61
2023/06/05 01:29:30;;;;;;;;;6.75;4.50;;;;;12.71;50.14;100387.78;5098366;28;8834;-60
2023/06/05 01:31:58;;;;;;;;;3.00;3.00;;;;;12.67;50.22;100388.97;5098041;28;8825;-59
2023/06/05 01:34:26;;;;;;;;;3.50;3.50;;;;;12.64;50.37;100385.72;5098248;28;8955;-58
2023/06/05 01:36:54;;;;;;;;;3.00;3.00;;;;;12.62;50.01;100390.34;5097878;28;8849;-58
2023/06/05 01:39:21;;;;;;;;;3.75;3.75;;;;;12.58;50.28;100392.41;5098214;28;8966;-60
2023/06/05 01:41:49;;;;;;;;;4.00;4.00;;;;;12.56;50.10;100393.50;5097093;28;8822;-60
2023/06/05 01:44:18;;;;;;;;;3.00;3.00;;;;;12.53;50.42;100393.75;5097998;28;8837;-59
2023/06/05 01:46:45;;;;;;;;;5.00;5.00;;;;;12.49;50.65;100392.28;5098278;28;8822;-60
2023/06/05 01:49:14;;;;;;;;;3.00;3.00;;;;;12.47;50.64;100394.25;5097762;28;8860;-60
2023/06/05 01:51:41;;;;;;;;;2.00;1.50;;;;;12.44;50.91;100386.47;5097753;28;9558;-60
2023/06/05 01:54:09;;;;;;;;;6.00;6.00;;;;;12.42;50.45;100380.41;5097132;28;8822;-59
2023/06/05 01:56:37;;;;;;;;;2.00;1.00;;;;;12.40;50.79;100385.03;5096779;28;8977;-60
2023/06/05 01:59:06;;;;;;;;;4.50;3.75;;;;;12.38;50.61;100381.63;5096595;28;8810;-57
2023/06/05 02:01:35;;;;;;;;;4.00;3.75;;;;;12.38;50.68;100381.63;5096697;28;8903;-60
2023/06/05 02:04:05;;;;;;;;;3.00;1.00;;;;;12.37;50.84;100391.44;5097047;28;8834;-60
2023/06/05 02:06:35;;;;;;;;;3.00;3.00;;;;;12.37;50.95;100390.59;5097487;28;8855;-60
2023/06/05 02:09:03;;;;;;;;;6.00;5.00;;;;;12.36;50.76;100384.41;5096392;28;8825;-60
2023/06/05 02:11:31;;;;;;;;;1.50;1.00;;;;;12.34;51.28;100386.38;5097223;28;8852;-59
2023/06/05 02:13:59;;;;;;;;;3.75;3.75;;;;;12.32;51.19;100390.13;5097417;28;8826;-60
2023/06/05 02:16:27;;;;;;;;;1.00;1.00;;;;;12.31;51.45;100393.78;5097240;28;8849;-60
2023/06/05 02:18:57;;;;;;;;;3.50;3.50;;;;;12.27;51.67;100389.63;5097835;28;9518;-59
2023/06/05 02:21:25;;;;;;;;;0.75;0.75;;;;;12.25;51.37;100392.41;5096533;28;8848;-60
2023/06/05 02:23:53;;;;;;;;;2.50;2.00;;;;;12.23;51.34;100385.53;5096532;28;8834;-60
2023/06/05 02:26:21;;;;;;;;;5.50;4.50;;;;;12.21;51.81;100380.28;5096917;28;8818;-60
2023/06/05 02:28:49;;;;;;;;;0.25;0.25;;;;;12.18;51.84;100385.03;5096961;28;8848;-60
2023/06/05 02:31:17;;;;;;;;;3.00;3.00;;;;;12.16;51.34;100384.31;5097166;28;8941;-60
2023/06/05 02:33:45;;;;;;;;;2.00;2.00;;;;;12.14;51.70;100388.88;5097017;28;8830;-60
2023/06/05 02:36:15;;;;;;;;;1.50;1.50;;;;;12.10;51.87;100387.44;5095912;28;8826;-60
2023/06/05 02:38:42;;;;;;;;;3.75;3.50;;;;;12.07;51.80;100385.88;5096398;28;9476;-61
2023/06/05 02:41:10;;;;;;;;;5.50;4.00;;;;;12.04;52.06;100379.91;5095551;28;9627;-59
2023/06/05 02:43:38;;;;;;;;;3.00;3.00;;;;;12.01;52.03;100377.50;5096905;28;8960;-60
2023/06/05 02:46:06;;;;;;;;;4.50;4.00;;;;;11.98;52.09;100385.72;5096585;28;9476;-58
2023/06/05 02:48:34;;;;;;;;;4.00;4.00;;;;;11.93;51.93;100379.94;5096565;28;8841;-60
2023/06/05 02:51:03;;;;;;;;;3.00;3.00;;;;;11.90;52.20;100379.31;5095958;28;8833;-59
2023/06/05 02:53:30;;;;;;;;;3.00;3.00;;;;;11.86;52.23;100376.03;5096186;28;8959;-60
2023/06/05 02:56:01;;;;;;;;;3.00;3.00;;;;;11.82;52.24;100379.91;5095457;28;8844;-60
2023/06/05 02:58:29;;;;;;;;;3.50;3.00;;;;;11.78;52.37;100367.78;5095569;28;8822;-60
2023/06/05 03:01:01;;;;;;;;;3.00;3.00;;;;;11.74;52.70;100373.47;5095619;28;8840;-60
2023/06/05 03:03:29;;;;;;;;;3.00;3.00;;;;;11.71;52.40;100369.22;5095350;28;8838;-60
2023/06/05 03:05:57;;;;;;;;;4.00;3.00;;;;;11.67;52.82;100370.41;5096862;28;8857;-60
2023/06/05 03:08:26;;;;;;;;;4.00;4.00;;;;;11.64;52.90;100367.13;5095290;28;8836;-60
2023/06/05 03:10:54;;;;;;;;;3.00;3.00;;;;;11.61;52.61;100360.22;5095122;28;8850;-57
2023/06/05 03:13:22;;;;;;;;;4.00;4.00;;;;;11.58;53.11;100373.78;5095346;28;8964;-59
2023/06/05 03:15:53;;;;;;;;;6.00;4.00;;;;;11.53;53.40;100365.25;5094890;28;8818;-60
2023/06/05 03:18:21;;;;;;;;;1.00;1.00;;;;;11.50;52.93;100365.50;5095836;28;9590;-58
2023/06/05 03:20:50;;;;;;;;;6.00;6.00;;;;;11.46;53.10;100366.69;5095827;28;8845;-60
2023/06/05 03:23:17;;;;;;;;;3.00;3.00;;;;;11.41;53.19;100363.53;5096095;28;8865;-60
2023/06/05 03:25:46;;;;;;;;;3.50;3.50;;;;;11.37;53.23;100363.91;5094766;28;8826;-58
2023/06/05 03:28:14;;;;;;;;;5.50;4.00;;;;;11.34;53.21;100364.97;5095116;28;8822;-61
2023/06/05 03:30:41;;;;;;;;;5.00;4.00;;;;;11.32;53.16;100361.59;5094758;28;8960;-60
2023/06/05 03:33:09;;;;;;;;;3.25;3.25;;;;;11.28;53.27;100362.75;5094844;28;8854;-60
2023/06/05 03:35:37;;;;;;;;;5.00;4.00;;;;;11.24;53.63;100366.63;5095493;28;8814;-59
2023/06/05 03:38:05;;;;;;;;;3.25;3.00;;;;;11.21;53.85;100358.03;5094904;28;8829;-61
2023/06/05 03:40:32;;;;;;;;;4.50;3.25;;;;;11.20;53.61;100365.16;5094697;28;8952;-60
2023/06/05 03:43:00;;;;;;;;;3.00;3.00;;;;;11.18;53.91;100364.44;5094969;28;8830;-59
2023/06/05 03:45:28;;;;;;;;;2.50;2.50;;;;;11.16;53.47;100366.34;5095066;28;8945;-60
2023/06/05 03:47:59;;;;;;;;;4.00;3.75;;;;;11.15;53.93;100367.31;5095400;28;8822;-59
2023/06/05 03:50:31;;;;;;;;;6.25;6.00;;;;;11.17;53.86;100361.88;5095673;28;8830;-59
2023/06/05 03:53:03;;;;;;;;;4.00;4.00;;;;;11.18;53.51;100367.09;5095308;28;8829;-60
2023/06/05 03:55:40;;;;;;;;;3.75;3.00;;;;;11.20;53.50;100366.97;5095234;28;8836;-60
2023/06/05 03:58:09;;;;;;;;;3.00;3.00;;;;;11.21;53.47;100368.69;5093997;28;8906;-60
2023/06/05 04:00:37;;;;;;;;;1.00;0.00;;;;;11.23;53.39;100372.91;5094981;28;9508;-60
2023/06/05 04:03:04;;;;;;;;;4.00;4.00;;;;;11.27;53.45;100374.41;5095867;28;8838;-60
2023/06/05 04:05:32;;;;;;;;;6.50;5.50;;;;;11.32;53.83;100376.72;5095741;28;8908;-59
2023/06/05 04:08:00;;;;;;;;;3.00;3.00;;;;;11.36;53.20;100375.53;5095358;28;8961;-60
2023/06/05 04:10:28;;;;;;;;;3.50;3.50;;;;;11.40;53.48;100379.66;5095425;28;9484;-59
2023/06/05 04:12:56;;;;;;;;;4.00;4.00;;;;;11.45;53.07;100372.16;5095120;28;8822;-59
2023/06/05 04:15:23;;;;;;;;;6.00;4.00;;;;;11.50;52.91;100376.16;5097543;28;8849;-60
2023/06/05 04:17:51;;;;;;;;;5.50;4.00;;;;;11.55;52.79;100374.00;5098380;28;8960;-60
2023/06/05 04:20:19;;;;;;;;;4.00;4.00;;;;;11.61;52.88;100373.53;5098246;28;8822;-60
2023/06/05 04:22:47;;;;;;;;;3.50;3.50;;;;;11.68;53.24;100373.94;5099300;28;8822;-60
2023/06/05 04:25:15;;;;;;;;;4.50;4.00;;;;;11.76;52.69;100372.34;5099042;28;8818;-59
2023/06/05 04:27:42;;;;;;;;;6.00;4.00;;;;;11.86;52.84;100369.84;5098416;28;8829;-60
2023/06/05 04:30:10;;;;;;;;;3.75;3.50;;;;;11.93;52.89;100374.59;5097544;28;8841;-60
2023/06/05 04:32:38;;;;;;;;;3.00;3.00;;;;;12.01;52.75;100372.16;5097326;28;8846;-58
2023/06/05 04:35:06;;;;;;;;;3.50;3.50;;;;;12.12;52.77;100374.81;5097611;28;8829;-60
2023/06/05 04:37:34;;;;;;;;;4.00;3.00;;;;;12.22;52.59;100375.78;5097825;28;8996;-59
2023/06/05 04:40:05;;;;;;;;;6.25;6.25;;;;;12.32;53.00;100369.59;5097709;28;8966;-60
2023/06/05 04:42:33;;;;;;;;;6.25;5.75;;;;;12.38;52.93;100376.28;5098794;28;8818;-59
2023/06/05 04:45:03;;;;;;;;;1.00;1.00;;;;;12.42;53.06;100375.06;5098620;28;8854;-60
2023/06/05 04:47:30;;;;;;;;;3.00;3.00;;;;;12.44;52.85;100365.94;5098902;28;8876;-58
2023/06/05 04:49:58;;;;;;;;;4.75;4.50;;;;;12.47;52.78;100371.03;5098491;28;8833;-59
2023/06/05 04:52:29;;;;;;;;;6.00;6.00;;;;;12.49;52.27;100370.91;5098147;28;8833;-59
2023/06/05 04:54:57;;;;;;;;;12.00;11.00;;;;;12.48;52.96;100367.41;5097917;28;8825;-60
2023/06/05 04:57:25;;;;;;;;;7.25;6.75;;;;;12.48;52.61;100366.56;5098215;28;8869;-60
2023/06/05 04:59:54;;;;;;;;;9.75;8.50;;;;;12.50;53.18;100376.16;5097843;28;8907;-60
2023/06/05 05:02:21;;;;;;;;;8.50;8.50;;;;;12.54;52.67;100366.06;5097461;28;8848;-60
2023/06/05 05:04:49;;;;;;;;;6.75;6.25;;;;;12.58;52.74;100362.16;5097790;28;8822;-60
2023/06/05 05:07:17;;;;;;;;;5.75;5.50;;;;;12.67;52.79;100364.06;5097523;28;8977;-60
2023/06/05 05:09:45;;;;;;;;;6.00;6.00;;;;;12.77;52.14;100367.72;5097821;28;8872;-59
2023/06/05 05:12:12;;;;;;;;;5.50;4.00;;;;;12.86;52.10;100361.59;5096958;28;8848;-60
2023/06/05 05:14:41;;;;;;;;;6.25;5.50;;;;;12.96;52.74;100378.59;5097206;28;8902;-60
2023/06/05 05:17:09;;;;;;;;;4.50;4.00;;;;;13.04;52.22;100366.31;5096985;28;8830;-60
2023/06/05 05:19:39;;;;;;;;;6.50;6.50;;;;;13.14;52.24;100361.91;5098044;28;8841;-59
2023/06/05 05:22:06;;;;;;;;;5.25;3.75;;;;;13.31;52.39;100363.16;5096963;28;8837;-58
2023/06/05 05:24:34;;;;;;;;;7.00;6.25;;;;;13.48;51.85;100365.25;5097448;28;8952;-58
2023/06/05 05:27:02;;;;;;;;;4.00;4.00;;;;;13.66;51.89;100359.19;5096230;28;8834;-60
2023/06/05 05:29:33;;;;;;;;;6.75;5.00;;;;;13.83;51.22;100357.75;5097124;28;8829;-58
2023/06/05 05:32:00;;;;;;;;;9.00;7.00;;;;;13.96;50.78;100355.72;5097086;28;9592;-60
2023/06/05 05:34:28;;;;;;;;;9.00;7.00;;;;;14.06;51.13;100356.59;5096819;28;8834;-60
2023/06/05 05:36:57;;;;;;;;;7.00;6.00;;;;;14.15;51.14;100359.34;5097192;28;8944;-59
2023/06/05 05:39:25;;;;;;;;;8.00;5.50;;;;;14.25;51.15;100351.34;5097408;28;9657;-60
2023/06/05 05:41:53;;;;;;;;;6.25;6.25;;;;;14.36;51.51;100359.31;5096567;28;8917;-59
2023/06/05 05:44:20;;;;;;;;;6.00;6.00;;;;;14.47;50.98;100359.19;5096914;28;8948;-59
2023/06/05 05:46:48;;;;;;;;;6.50;6.00;;;;;14.57;50.84;100363.59;5096244;28;8818;-60
2023/06/05 05:49:16;;;;;;;;;7.50;7.50;;;;;14.66;51.27;100361.94;5094696;28;8875;-60
2023/06/05 05:51:44;;;;;;;;;6.25;5.50;;;;;14.75;50.75;100361.09;5095929;28;8825;-57
2023/06/05 05:54:11;;;;;;;;;6.00;5.00;;;;;14.84;50.99;100360.25;5095659;28;8856;-58
2023/06/05 05:56:39;;;;;;;;;9.75;7.00;;;;;14.94;50.82;100363.81;5095546;28;8829;-60
2023/06/05 05:59:07;;;;;;;;;9.75;9.00;;;;;15.03;50.75;100366.50;5095551;28;9019;-60
2023/06/05 06:01:35;;;;;;;;;7.00;6.00;;;;;15.13;50.38;100356.63;5096057;28;8864;-60
2023/06/05 06:04:03;;;;;;;;;5.50;3.75;;;;;15.23;50.23;100356.63;5095984;28;8869;-59
2023/06/05 06:06:33;;;;;;;;;7.00;7.00;;;;;15.33;50.58;100350.28;5096264;28;8948;-58
2023/06/05 06:09:02;;;;;;;;;5.50;3.25;;;;;15.42;50.61;100354.84;5096133;28;8830;-58
2023/06/05 06:11:30;;;;;;;;;8.50;7.00;;;;;15.51;49.89;100355.78;5095409;28;8946;-58
2023/06/05 06:13:57;;;;;;;;;9.00;7.50;;;;;15.59;49.88;100354.09;5095145;28;8834;-58
2023/06/05 06:16:25;;;;;;;;;6.25;5.50;;;;;15.68;50.29;100363.09;5095601;28;8919;-58
2023/06/05 06:18:55;;;;;;;;;6.00;5.50;;;;;15.75;49.90;100365.09;5095965;28;8830;-60
2023/06/05 06:21:25;;;;;;;;;6.75;6.00;;;;;15.85;50.02;100367.75;5095632;28;9015;-58
2023/06/05 06:23:54;;;;;;;;;7.00;7.00;;;;;15.95;49.51;100363.22;5095303;28;8980;-60
2023/06/05 06:26:22;;;;;;;;;5.00;3.50;;;;;16.04;49.40;100373.06;5095341;28;8830;-59
2023/06/05 06:28:50;;;;;;;;;7.25;6.50;;;;;16.10;49.61;100367.13;5095887;28;8822;-58
2023/06/05 06:31:18;;;;;;;;;6.25;6.25;;;;;16.16;49.52;100369.22;5095454;28;8830;-60
2023/06/05 06:33:46;;;;;;;;;7.00;6.50;;;;;16.23;49.61;100355.91;5095071;28;8869;-59
2023/06/05 06:36:13;;;;;;;;;10.25;7.50;;;;;16.33;49.39;100369.31;5094314;28;8856;-59
2023/06/05 06:38:41;;;;;;;;;3.50;3.50;;;;;16.43;49.38;100362.06;5094477;28;8858;-59
2023/06/05 06:41:09;;;;;;;;;7.50;7.50;;;;;16.49;49.38;100367.69;5094654;28;9610;-60
2023/06/05 06:43:38;;;;;;;;;8.00;7.00;;;;;16.55;49.23;100359.03;5094816;28;8842;-61
2023/06/05 06:46:06;;;;;;;;;8.00;8.00;;;;;16.66;49.44;100364.22;5094014;28;8989;-58
2023/06/05 06:48:34;;;;;;;;;6.50;6.50;;;;;16.76;49.40;100367.69;5094119;28;8822;-58
2023/06/05 06:51:03;;;;;;;;;6.75;6.75;;;;;16.87;49.54;100362.09;5094498;28;8838;-60
2023/06/05 06:53:31;;;;;;;;;6.00;4.00;;;;;16.92;49.34;100370.56;5094486;28;8838;-58
2023/06/05 06:55:59;;;;;;;;;9.75;7.00;;;;;17.03;49.01;100361.41;5093882;28;8826;-60
2023/06/05 06:58:27;;;;;;;;;7.00;6.25;;;;;17.13;48.86;100373.81;5093936;28;8830;-60
2023/06/05 07:00:55;;;;;;;;;9.00;7.00;;;;;17.24;49.45;100370.06;5094233;28;8829;-59
2023/06/05 07:03:24;;;;;;;;;3.00;3.00;;;;;17.33;48.88;100369.94;5094230;28;8850;-59
2023/06/05 07:05:52;;;;;;;;;9.50;8.00;;;;;17.41;48.79;100371.91;5093757;28;8848;-60
2023/06/05 07:08:21;;;;;;;;;9.00;7.50;;;;;17.49;48.72;100369.28;5094683;28;9563;-60
2023/06/05 07:10:49;;;;;;;;;7.50;7.00;;;;;17.57;48.86;100369.34;5094504;28;8842;-59
2023/06/05 07:13:17;;;;;;;;;9.00;9.00;;;;;17.65;48.65;100359.50;5093316;28;8854;-60
2023/06/05 07:15:45;;;;;;;;;9.25;9.00;;;;;17.74;48.68;100350.47;5093882;28;8852;-60
2023/06/05 07:18:12;;;;;;;;;7.00;7.00;;;;;17.82;48.99;100365.84;5093316;28;8878;-60
2023/06/05 07:20:40;;;;;;;;;8.20;7.40;;;;;17.90;48.45;100361.38;5093381;28;8869;-59
2023/06/05 07:23:08;;;;;;;;;8.60;8.60;;;;;17.98;48.50;100355.19;5091761;28;8846;-59
2023/06/05 07:25:37;;;;;;;;;6.50;6.50;;;;;18.07;48.46;100356.94;5092351;28;8868;-60
2023/06/05 07:28:06;;;;;;;;;8.00;8.00;;;;;18.15;48.06;100352.41;5092807;28;8971;-59
2023/06/05 07:30:35;;;;;;;;;6.00;4.80;;;;;18.25;48.03;100350.47;5093367;28;8842;-60
2023/06/05 07:33:03;;;;;;;;;12.20;9.00;;;;;18.35;48.25;100350.34;5094128;28;8873;-60
2023/06/05 07:35:34;;;;;;;;;7.00;6.80;;;;;18.42;47.93;100343.31;5093591;28;8850;-60
2023/06/05 07:38:02;;;;;;;;;6.40;6.40;;;;;18.48;47.85;100351.63;5094435;28;8834;-60
2023/06/05 07:40:30;;;;;;;;;6.40;6.40;;;;;18.57;47.96;100350.63;5094840;28;8833;-59
2023/06/05 07:42:59;;;;;;;;;6.40;6.40;;;;;18.65;48.26;100347.97;5095185;28;8841;-59
2023/06/05 07:45:26;;;;;;;;;10.40;8.60;;;;;18.74;48.43;100355.06;5094473;28;8910;-60
2023/06/05 07:47:54;;;;;;;;;8.20;8.20;;;;;18.82;48.30;100346.19;5094263;28;8837;-60
2023/06/05 07:50:23;;;;;;;;;7.60;7.00;;;;;18.91;48.00;100346.00;5097303;28;8829;-59
2023/06/05 07:52:51;;;;;;;;;8.20;7.00;;;;;19.02;47.74;100347.56;5098658;28;8852;-60
2023/06/05 07:55:20;;;;;;;;;7.60;6.00;;;;;19.13;47.72;100344.56;5098598;28;8891;-60
2023/06/05 07:57:48;;;;;;;;;4.60;4.20;;;;;19.21;47.86;100337.31;5098128;28;8829;-59
2023/06/05 08:00:17;;;;;;;;;7.40;7.20;;;;;19.30;47.66;100352.53;5097902;28;8972;-59
2023/06/05 08:02:45;;;;;;;;;8.80;8.20;;;;;19.39;47.76;100345.28;5098083;28;8892;-60
2023/06/05 08:05:14;;;;;;;;;7.60;7.00;;;;;19.45;47.31;100350.88;5098515;28;8872;-61
2023/06/05 08:07:42;;;;;;;;;2.80;1.60;;;;;19.55;46.91;100343.44;5098760;28;8911;-58
2023/06/05 08:10:10;;;;;;;;;7.00;6.40;;;;;19.62;47.11;100346.28;5098250;28;8826;-60
2023/06/05 08:12:38;;;;;;;;;10.00;8.40;;;;;19.69;47.25;100347.28;5098438;28;8974;-60
2023/06/05 08:15:06;;;;;;;;;5.40;5.00;;;;;19.75;47.34;100346.63;5098349;28;8838;-59
2023/06/05 08:17:34;;;;;;;;;7.00;7.00;;;;;19.79;47.67;100342.59;5098848;28;8833;-58
2023/06/05 08:20:05;;;;;;;;;5.80;5.80;;;;;19.85;47.48;100341.88;5098517;28;8884;-58
2023/06/05 08:22:33;;;;;;;;;5.00;5.00;;;;;19.94;46.93;100341.69;5098109;28;9549;-61
2023/06/05 08:25:00;;;;;;;;;6.20;5.00;;;;;20.09;47.28;100342.72;5097716;28;8858;-60
2023/06/05 08:27:28;;;;;;;;;11.00;9.20;;;;;20.24;46.57;100338.28;5097126;28;8977;-59
2023/06/05 08:29:56;;;;;;;;;9.60;7.20;;;;;20.34;46.45;100338.09;5097261;28;8838;-61
2023/06/05 08:32:24;;;;;;;;;7.00;5.80;;;;;20.41;46.50;100330.94;5097849;28;8838;-61
2023/06/05 08:34:52;;;;;;;;;5.00;4.60;;;;;20.50;46.72;100327.19;5097515;28;8834;-60
2023/06/05 08:37:20;;;;;;;;;10.20;9.00;;;;;20.62;46.78;100331.22;5097432;28;8881;-61
2023/06/05 08:39:48;;;;;;;;;6.00;6.00;;;;;20.69;46.63;100327.59;5097991;28;8971;-60
2023/06/05 08:42:18;;;;;;;;;10.20;8.00;;;;;20.78;46.45;100331.94;5098107;28;8830;-61
2023/06/05 08:44:47;;;;;;;;;2.00;2.00;;;;;20.86;46.06;100329.19;5098443;28;8822;-61
2023/06/05 08:47:29;;;;;;;;;7.80;7.80;;;;;20.95;45.73;100328.19;5098274;28;8849;-60
2023/06/05 08:49:57;;;;;;;;;7.60;7.60;;;;;21.07;45.81;100332.16;5096822;28;8865;-58
2023/06/05 08:52:25;;;;;;;;;7.20;7.00;;;;;21.13;46.41;100324.16;5096372;28;8962;-61
2023/06/05 08:54:54;;;;;;;;;6.80;5.20;;;;;21.25;46.02;100327.31;5096905;28;8826;-60
2023/06/05 08:57:22;;;;;;;;;5.00;5.00;;;;;21.37;46.01;100318.56;5096527;28;8973;-59
2023/06/05 08:59:49;;;;;;;;;7.60;7.60;;;;;21.49;45.85;100317.09;5096464;28;8861;-60
2023/06/05 09:02:17;;;;;;;;;5.60;5.60;;;;;21.59;46.01;100312.28;5095735;28;8854;-61
2023/06/05 09:04:46;;;;;;;;;3.60;3.60;;;;;21.66;45.85;100318.69;5096025;28;8837;-61
2023/06/05 09:07:15;;;;;;;;;5.00;5.00;;;;;21.76;45.55;100307.56;5096426;28;8837;-58
2023/06/05 09:09:43;;;;;;;;;5.00;5.00;;;;;21.90;45.09;100314.88;5096955;28;8946;-59
2023/06/05 09:12:11;;;;;;;;;8.00;6.60;;;;;22.00;45.19;100310.03;5097675;28;8837;-61
2023/06/05 09:14:39;;;;;;;;;6.40;5.00;;;;;22.09;45.12;100309.75;5097607;28;8948;-60
2023/06/05 09:17:08;;;;;;;;;8.40;8.00;;;;;22.17;45.24;100301.50;5097098;28;8822;-59
2023/06/05 09:19:36;;;;;;;;;7.20;5.80;;;;;22.31;44.74;100313.41;5097021;28;8841;-60
2023/06/05 09:22:05;;;;;;;;;5.00;5.00;;;;;22.41;44.79;100305.81;5096910;28;8840;-61
2023/06/05 09:24:33;;;;;;;;;5.80;4.80;;;;;22.50;44.50;100307.44;5096802;28;8826;-62
2023/06/05 09:27:00;;;;;;;;;4.60;4.60;;;;;22.63;44.78;100300.28;5096163;28;8841;-61
2023/06/05 09:29:28;;;;;;;;;6.00;5.00;;;;;22.79;44.40;100304.66;5096170;28;8826;-61
2023/06/05 09:31:57;;;;;;;;;5.20;5.20;;;;;22.94;43.88;100306.31;5096248;28;8834;-61
2023/06/05 09:34:25;;;;;;;;;5.20;4.60;;;;;23.02;43.81;100308.06;5096319;28;8846;-60
2023/06/05 09:36:54;;;;;;;;;6.00;5.80;;;;;23.09;43.38;100307.09;5095650;28;8834;-61
2023/06/05 09:39:24;;;;;;;;;8.00;6.00;;;;;23.20;43.79;100301.19;5095313;28;8869;-60
2023/06/05 09:41:52;;;;;;;;;7.20;6.00;;;;;23.33;43.21;100305.91;5095135;28;8846;-59
2023/06/05 09:44:20;;;;;;;;;8.40;8.00;;;;;23.49;43.61;100305.63;5095536;28;8826;-61
2023/06/05 09:46:48;;;;;;;;;6.60;6.60;;;;;23.63;43.60;100300.13;5094834;28;8830;-60
2023/06/05 09:49:16;;;;;;;;;7.20;7.20;;;;;23.74;43.28;100294.13;5094912;28;8852;-60
2023/06/05 09:51:44;;;;;;;;;9.00;8.20;;;;;23.83;43.14;100289.38;5094845;28;8853;-61
2023/06/05 09:54:12;;;;;;;;;8.20;8.20;;;;;23.95;42.98;100291.41;5095123;28;9523;-60
2023/06/05 09:56:40;;;;;;;;;6.00;5.00;;;;;24.18;42.57;100291.97;5094817;28;8849;-61
2023/06/05 09:59:08;;;;;;;;;6.00;5.00;;;;;24.50;42.01;100285.00;5095550;28;8850;-59
2023/06/05 10:01:37;;;;;;;;;5.60;5.60;;;;;24.84;41.74;100271.31;5094731;28;8860;-60
2023/06/05 10:04:05;;;;;;;;;6.00;6.00;;;;;25.16;41.05;100276.00;5094841;28;8846;-58
2023/06/05 10:06:35;;;;;;;;;5.60;4.20;;;;;25.45;40.80;100271.06;5095017;28;9511;-58
2023/06/05 10:09:04;;;;;;;;;7.00;7.00;;;;;25.73;40.09;100269.78;5094772;28;8861;-60
2023/06/05 10:11:32;;;;;;;;;7.40;6.80;;;;;26.00;40.09;100271.47;5094145;28;8838;-59
2023/06/05 10:14:01;;;;;;;;;5.00;5.00;;;;;26.28;39.39;100272.00;5094154;28;8846;-59
2023/06/05 10:16:29;;;;;;;;;6.40;6.00;;;;;26.58;39.57;100270.47;5095042;28;8837;-61
2023/06/05 10:18:57;;;;;;;;;6.80;6.60;;;;;26.87;39.27;100264.44;5094485;28;8833;-61
2023/06/05 10:21:25;;;;;;;;;6.40;4.60;;;;;27.23;38.63;100259.19;5094871;28;8854;-58
2023/06/05 10:23:53;;;;;;;;;8.20;7.60;;;;;27.62;38.41;100260.78;5095025;28;8876;-58
2023/06/05 10:26:22;;;;;;;;;6.20;6.00;;;;;28.04;38.11;100258.09;5095233;28;8880;-60
2023/06/05 10:28:49;;;;;;;;;6.20;4.60;;;;;28.38;37.48;100252.03;5094789;28;8830;-59
2023/06/05 10:31:17;;;;;;;;;5.80;4.80;;;;;28.66;36.95;100255.06;5095388;28;8958;-59
2023/06/05 10:33:46;;;;;;;;;7.20;5.80;;;;;28.93;36.96;100248.19;5094729;28;8870;-61
2023/06/05 10:36:16;;;;;;;;;7.00;5.40;;;;;29.08;37.26;100248.59;5094536;28;8834;-58
2023/06/05 10:38:44;;;;;;;;;7.20;7.00;;;;;29.33;36.68;100241.00;5094358;28;8845;-61
2023/06/05 10:41:12;;;;;;;;;3.20;2.40;;;;;29.55;36.00;100250.41;5094659;28;8841;-59
2023/06/05 10:43:40;;;;;;;;;5.00;5.00;;;;;29.81;36.04;100240.88;5094926;28;8932;-60
2023/06/05 10:46:08;;;;;;;;;5.60;5.60;;;;;29.96;35.68;100243.97;5094690;28;8867;-61
2023/06/05 10:48:36;;;;;;;;;5.60;5.40;;;;;30.19;35.57;100241.22;5094542;28;8911;-60
2023/06/05 10:51:05;;;;;;;;;5.20;5.00;;;;;30.39;35.30;100245.25;5094201;28;8837;-61
2023/06/05 10:53:33;;;;;;;;;6.00;5.00;;;;;30.51;34.96;100240.56;5094354;28;8845;-59
2023/06/05 10:56:01;;;;;;;;;4.00;4.00;;;;;30.74;34.77;100248.78;5095004;28;8842;-60
2023/06/05 10:58:29;;;;;;;;;6.80;6.00;;;;;30.89;34.59;100241.63;5094440;28;8927;-60
2023/06/05 11:00:57;;;;;;;;;5.20;4.80;;;;;30.96;34.31;100242.31;5094504;28;8845;-61
2023/06/05 11:03:25;;;;;;;;;5.20;5.00;;;;;31.06;33.91;100244.44;5094520;28;8885;-61
2023/06/05 11:05:53;;;;;;;;;4.80;4.80;;;;;31.23;33.96;100245.31;5093975;28;8845;-59
2023/06/05 11:08:23;;;;;;;;;5.20;5.20;;;;;31.40;33.67;100236.00;5093886;28;8858;-61
2023/06/05 11:10:51;;;;;;;;;3.00;3.00;;;;;31.54;32.96;100229.09;5093539;28;8838;-59
2023/06/05 11:13:19;;;;;;;;;2.60;2.00;;;;;31.61;33.24;100226.16;5092765;28;8878;-61
2023/06/05 11:15:47;;;;;;;;;6.20;5.20;;;;;31.70;32.83;100222.75;5092570;28;8902;-59
2023/06/05 11:18:14;;;;;;;;;6.00;6.00;;;;;31.88;33.59;100224.41;5092917;28;8830;-60
2023/06/05 11:20:43;;;;;;;;;5.80;5.80;;;;;32.02;32.77;100218.28;5092328;28;8838;-59
2023/06/05 11:23:12;;;;;;;;;4.40;4.40;;;;;32.12;32.31;100221.19;5091750;28;8846;-62
2023/06/05 11:25:40;;;;;;;;;4.00;3.80;;;;;32.23;32.53;100216.69;5092131;28;8825;-59
2023/06/05 11:28:09;;;;;;;;;5.00;4.60;;;;;32.27;32.08;100206.78;5092272;28;8841;-59
2023/06/05 11:30:37;;;;;;;;;6.40;6.40;;;;;32.25;32.26;100209.00;5092687;28;8830;-59
2023/06/05 11:33:15;;;;;;;;;6.00;6.00;;;;;32.30;31.31;100217.31;5092417;28;8854;-58
2023/06/05 11:35:43;;;;;;;;;5.80;5.20;;;;;32.34;31.48;100212.97;5092067;28;8857;-59
2023/06/05 11:38:11;;;;;;;;;6.80;6.00;;;;;32.40;31.36;100209.19;5093018;28;8858;-59